sensor_id;sensor_type;location;lat;lon;timestamp;P1;durP1;ratioP1;P2;durP2;ratioP2
10343;SDS011;5217;43.960;10.954;2022-07-06T00:02:20;3.20;;;2.25;;
10343;SDS011;5217;43.960;10.954;2022-07-06T00:04:49;2.95;;;2.30;;
10343;SDS011;5217;43.960;10.954;2022-07-06T00:07:18;3.45;;;2.30;;
10343;SDS011;5217;43.960;10.954;2022-07-06T00:09:46;2.97;;;1.90;;
10343;SDS011;5217;43.960;10.954;2022-07-06T00:12:15;4.05;;;1.95;;
10343;SDS011;5217;43.960;10.954;2022-07-06T00:14:45;6.13;;;2.20;;
10343;SDS011;5217;43.960;10.954;2022-07-06T00:17:13;5.03;;;2.13;;
10343;SDS011;5217;43.960;10.954;2022-07-06T00:19:42;4.40;;;2.10;;
10343;SDS011;5217;43.960;10.954;2022-07-06T00:22:10;4.28;;;2.25;;
10343;SDS011;5217;43.960;10.954;2022-07-06T00:24:39;3.40;;;2.10;;
10343;SDS011;5217;43.960;10.954;2022-07-06T00:27:07;2.55;;;2.00;;
10343;SDS011;5217;43.960;10.954;2022-07-06T00:29:36;2.40;;;1.80;;
10343;SDS011;5217;43.960;10.954;2022-07-06T00:32:11;3.63;;;2.10;;
10343;SDS011;5217;43.960;10.954;2022-07-06T00:34:40;6.78;;;2.55;;
10343;SDS011;5217;43.960;10.954;2022-07-06T00:37:08;3.13;;;1.98;;
10343;SDS011;5217;43.960;10.954;2022-07-06T00:39:37;5.13;;;2.40;;
10343;SDS011;5217;43.960;10.954;2022-07-06T00:42:06;3.55;;;2.03;;
10343;SDS011;5217;43.960;10.954;2022-07-06T00:44:34;3.63;;;2.05;;
10343;SDS011;5217;43.960;10.954;2022-07-06T00:47:03;3.25;;;1.98;;
10343;SDS011;5217;43.960;10.954;2022-07-06T00:49:33;3.22;;;2.15;;
10343;SDS011;5217;43.960;10.954;2022-07-06T00:52:19;3.75;;;2.10;;
10343;SDS011;5217;43.960;10.954;2022-07-06T00:54:48;5.22;;;2.38;;
10343;SDS011;5217;43.960;10.954;2022-07-06T00:57:17;3.25;;;2.15;;
10343;SDS011;5217;43.960;10.954;2022-07-06T00:59:46;3.85;;;2.30;;
10343;SDS011;5217;43.960;10.954;2022-07-06T01:02:14;3.90;;;2.20;;
10343;SDS011;5217;43.960;10.954;2022-07-06T01:04:44;4.22;;;2.00;;
10343;SDS011;5217;43.960;10.954;2022-07-06T01:07:13;5.55;;;2.40;;
10343;SDS011;5217;43.960;10.954;2022-07-06T01:09:42;4.20;;;2.10;;
10343;SDS011;5217;43.960;10.954;2022-07-06T01:12:11;2.50;;;2.28;;
10343;SDS011;5217;43.960;10.954;2022-07-06T01:14:39;3.78;;;2.28;;
10343;SDS011;5217;43.960;10.954;2022-07-06T01:17:09;2.45;;;2.00;;
10343;SDS011;5217;43.960;10.954;2022-07-06T01:19:37;3.25;;;2.00;;
10343;SDS011;5217;43.960;10.954;2022-07-06T01:22:08;3.58;;;2.33;;
10343;SDS011;5217;43.960;10.954;2022-07-06T01:24:37;3.30;;;1.90;;
10343;SDS011;5217;43.960;10.954;2022-07-06T01:27:06;4.47;;;2.40;;
10343;SDS011;5217;43.960;10.954;2022-07-06T01:29:35;2.22;;;1.88;;
10343;SDS011;5217;43.960;10.954;2022-07-06T01:32:04;4.20;;;2.40;;
10343;SDS011;5217;43.960;10.954;2022-07-06T01:34:34;3.40;;;2.40;;
10343;SDS011;5217;43.960;10.954;2022-07-06T01:37:03;7.22;;;2.40;;
10343;SDS011;5217;43.960;10.954;2022-07-06T01:39:33;5.93;;;2.28;;
10343;SDS011;5217;43.960;10.954;2022-07-06T01:42:01;3.05;;;2.05;;
10343;SDS011;5217;43.960;10.954;2022-07-06T01:44:31;3.05;;;2.10;;
10343;SDS011;5217;43.960;10.954;2022-07-06T01:46:59;3.60;;;2.28;;
10343;SDS011;5217;43.960;10.954;2022-07-06T01:49:28;3.63;;;2.30;;
10343;SDS011;5217;43.960;10.954;2022-07-06T01:51:56;2.97;;;2.20;;
10343;SDS011;5217;43.960;10.954;2022-07-06T01:54:25;3.63;;;2.25;;
10343;SDS011;5217;43.960;10.954;2022-07-06T01:56:55;5.18;;;2.13;;
10343;SDS011;5217;43.960;10.954;2022-07-06T01:59:24;2.85;;;2.10;;
10343;SDS011;5217;43.960;10.954;2022-07-06T02:01:53;3.30;;;2.05;;
10343;SDS011;5217;43.960;10.954;2022-07-06T02:04:21;2.65;;;1.77;;
10343;SDS011;5217;43.960;10.954;2022-07-06T02:06:50;2.97;;;2.10;;
10343;SDS011;5217;43.960;10.954;2022-07-06T02:09:19;3.13;;;2.20;;
10343;SDS011;5217;43.960;10.954;2022-07-06T02:11:48;3.92;;;2.30;;
10343;SDS011;5217;43.960;10.954;2022-07-06T02:14:18;2.78;;;2.15;;
10343;SDS011;5217;43.960;10.954;2022-07-06T02:16:47;2.65;;;2.15;;
10343;SDS011;5217;43.960;10.954;2022-07-06T02:19:15;4.20;;;2.10;;
10343;SDS011;5217;43.960;10.954;2022-07-06T02:21:44;3.60;;;2.40;;
10343;SDS011;5217;43.960;10.954;2022-07-06T02:24:12;2.85;;;2.10;;
10343;SDS011;5217;43.960;10.954;2022-07-06T02:26:40;5.15;;;2.45;;
10343;SDS011;5217;43.960;10.954;2022-07-06T02:29:09;6.57;;;2.20;;
10343;SDS011;5217;43.960;10.954;2022-07-06T02:31:39;4.10;;;2.33;;
10343;SDS011;5217;43.960;10.954;2022-07-06T02:34:07;4.45;;;2.22;;
10343;SDS011;5217;43.960;10.954;2022-07-06T02:36:36;2.47;;;2.13;;
10343;SDS011;5217;43.960;10.954;2022-07-06T02:39:04;3.90;;;2.35;;
10343;SDS011;5217;43.960;10.954;2022-07-06T02:41:32;3.80;;;2.10;;
10343;SDS011;5217;43.960;10.954;2022-07-06T02:44:01;6.75;;;2.33;;
10343;SDS011;5217;43.960;10.954;2022-07-06T02:46:29;3.63;;;2.25;;
10343;SDS011;5217;43.960;10.954;2022-07-06T02:48:59;5.40;;;2.33;;
10343;SDS011;5217;43.960;10.954;2022-07-06T02:51:28;5.22;;;2.45;;
10343;SDS011;5217;43.960;10.954;2022-07-06T02:53:56;4.10;;;2.35;;
10343;SDS011;5217;43.960;10.954;2022-07-06T02:56:24;3.72;;;2.40;;
10343;SDS011;5217;43.960;10.954;2022-07-06T02:58:54;5.78;;;2.25;;
10343;SDS011;5217;43.960;10.954;2022-07-06T03:01:22;4.60;;;2.17;;
10343;SDS011;5217;43.960;10.954;2022-07-06T03:03:51;6.22;;;2.40;;
10343;SDS011;5217;43.960;10.954;2022-07-06T03:06:21;4.72;;;2.20;;
10343;SDS011;5217;43.960;10.954;2022-07-06T03:08:49;6.32;;;2.35;;
10343;SDS011;5217;43.960;10.954;2022-07-06T03:11:18;5.82;;;2.45;;
10343;SDS011;5217;43.960;10.954;2022-07-06T03:13:46;3.58;;;2.03;;
10343;SDS011;5217;43.960;10.954;2022-07-06T03:16:14;2.72;;;2.20;;
10343;SDS011;5217;43.960;10.954;2022-07-06T03:18:43;5.32;;;2.30;;
10343;SDS011;5217;43.960;10.954;2022-07-06T03:21:11;3.95;;;2.30;;
10343;SDS011;5217;43.960;10.954;2022-07-06T03:23:41;6.20;;;2.22;;
10343;SDS011;5217;43.960;10.954;2022-07-06T03:26:09;3.10;;;2.15;;
10343;SDS011;5217;43.960;10.954;2022-07-06T03:28:38;2.70;;;2.17;;
10343;SDS011;5217;43.960;10.954;2022-07-06T03:31:06;3.90;;;2.35;;
10343;SDS011;5217;43.960;10.954;2022-07-06T03:33:35;3.28;;;2.28;;
10343;SDS011;5217;43.960;10.954;2022-07-06T03:36:03;5.15;;;2.15;;
10343;SDS011;5217;43.960;10.954;2022-07-06T03:38:32;4.40;;;2.50;;
10343;SDS011;5217;43.960;10.954;2022-07-06T03:41:02;3.63;;;2.28;;
10343;SDS011;5217;43.960;10.954;2022-07-06T03:43:31;4.30;;;2.47;;
10343;SDS011;5217;43.960;10.954;2022-07-06T03:45:59;5.43;;;2.70;;
10343;SDS011;5217;43.960;10.954;2022-07-06T03:48:27;6.93;;;3.00;;
10343;SDS011;5217;43.960;10.954;2022-07-06T03:50:56;4.07;;;2.40;;
10343;SDS011;5217;43.960;10.954;2022-07-06T03:53:25;4.97;;;2.75;;
10343;SDS011;5217;43.960;10.954;2022-07-06T03:55:53;3.63;;;2.42;;
10343;SDS011;5217;43.960;10.954;2022-07-06T03:58:41;3.67;;;2.30;;
10343;SDS011;5217;43.960;10.954;2022-07-06T04:01:09;3.42;;;2.28;;
10343;SDS011;5217;43.960;10.954;2022-07-06T04:03:38;3.55;;;2.65;;
10343;SDS011;5217;43.960;10.954;2022-07-06T04:06:07;3.72;;;2.55;;
10343;SDS011;5217;43.960;10.954;2022-07-06T04:08:35;5.75;;;2.53;;
10343;SDS011;5217;43.960;10.954;2022-07-06T04:11:03;4.03;;;2.40;;
10343;SDS011;5217;43.960;10.954;2022-07-06T04:13:32;3.83;;;2.10;;
10343;SDS011;5217;43.960;10.954;2022-07-06T04:16:02;2.92;;;2.15;;
10343;SDS011;5217;43.960;10.954;2022-07-06T04:18:31;3.15;;;2.10;;
10343;SDS011;5217;43.960;10.954;2022-07-06T04:21:00;5.40;;;2.50;;
10343;SDS011;5217;43.960;10.954;2022-07-06T04:23:28;7.78;;;2.50;;
10343;SDS011;5217;43.960;10.954;2022-07-06T04:25:57;6.43;;;2.53;;
10343;SDS011;5217;43.960;10.954;2022-07-06T04:28:25;8.85;;;2.92;;
10343;SDS011;5217;43.960;10.954;2022-07-06T04:30:54;8.95;;;2.80;;
10343;SDS011;5217;43.960;10.954;2022-07-06T04:33:24;9.88;;;2.83;;
10343;SDS011;5217;43.960;10.954;2022-07-06T04:35:52;6.50;;;2.60;;
10343;SDS011;5217;43.960;10.954;2022-07-06T04:38:20;5.53;;;2.80;;
10343;SDS011;5217;43.960;10.954;2022-07-06T04:40:49;6.07;;;2.50;;
10343;SDS011;5217;43.960;10.954;2022-07-06T04:43:18;5.10;;;2.90;;
10343;SDS011;5217;43.960;10.954;2022-07-06T04:45:46;4.03;;;3.03;;
10343;SDS011;5217;43.960;10.954;2022-07-06T04:48:15;5.05;;;2.80;;
10343;SDS011;5217;43.960;10.954;2022-07-06T04:50:44;5.28;;;2.92;;
10343;SDS011;5217;43.960;10.954;2022-07-06T04:53:13;5.10;;;2.80;;
10343;SDS011;5217;43.960;10.954;2022-07-06T04:55:41;4.65;;;2.42;;
10343;SDS011;5217;43.960;10.954;2022-07-06T04:58:11;4.88;;;2.45;;
10343;SDS011;5217;43.960;10.954;2022-07-06T05:00:39;3.00;;;2.30;;
10343;SDS011;5217;43.960;10.954;2022-07-06T05:03:08;4.45;;;2.42;;
10343;SDS011;5217;43.960;10.954;2022-07-06T05:05:36;4.78;;;2.47;;
10343;SDS011;5217;43.960;10.954;2022-07-06T05:08:06;3.95;;;2.53;;
10343;SDS011;5217;43.960;10.954;2022-07-06T05:10:35;5.50;;;2.55;;
10343;SDS011;5217;43.960;10.954;2022-07-06T05:13:03;4.53;;;2.45;;
10343;SDS011;5217;43.960;10.954;2022-07-06T05:15:32;3.28;;;2.80;;
10343;SDS011;5217;43.960;10.954;2022-07-06T05:18:00;3.67;;;2.53;;
10343;SDS011;5217;43.960;10.954;2022-07-06T05:20:29;4.82;;;2.53;;
10343;SDS011;5217;43.960;10.954;2022-07-06T05:22:57;4.82;;;2.35;;
10343;SDS011;5217;43.960;10.954;2022-07-06T05:25:27;3.53;;;2.40;;
10343;SDS011;5217;43.960;10.954;2022-07-06T05:27:56;3.45;;;2.40;;
10343;SDS011;5217;43.960;10.954;2022-07-06T05:30:24;9.70;;;2.75;;
10343;SDS011;5217;43.960;10.954;2022-07-06T05:32:53;5.60;;;2.72;;
10343;SDS011;5217;43.960;10.954;2022-07-06T05:35:22;5.22;;;2.67;;
10343;SDS011;5217;43.960;10.954;2022-07-06T05:38:11;6.25;;;2.50;;
10343;SDS011;5217;43.960;10.954;2022-07-06T05:40:40;7.03;;;2.58;;
10343;SDS011;5217;43.960;10.954;2022-07-06T05:43:09;6.93;;;2.40;;
10343;SDS011;5217;43.960;10.954;2022-07-06T05:45:37;4.03;;;3.03;;
10343;SDS011;5217;43.960;10.954;2022-07-06T05:48:06;3.70;;;2.80;;
10343;SDS011;5217;43.960;10.954;2022-07-06T05:50:52;6.00;;;2.78;;
10343;SDS011;5217;43.960;10.954;2022-07-06T05:53:20;3.80;;;3.00;;
10343;SDS011;5217;43.960;10.954;2022-07-06T05:55:50;3.45;;;3.10;;
10343;SDS011;5217;43.960;10.954;2022-07-06T05:58:19;3.63;;;3.00;;
10343;SDS011;5217;43.960;10.954;2022-07-06T06:00:48;4.50;;;3.45;;
10343;SDS011;5217;43.960;10.954;2022-07-06T06:03:16;3.58;;;3.13;;
10343;SDS011;5217;43.960;10.954;2022-07-06T06:05:45;5.05;;;3.30;;
10343;SDS011;5217;43.960;10.954;2022-07-06T06:08:13;4.60;;;2.95;;
10343;SDS011;5217;43.960;10.954;2022-07-06T06:10:42;5.53;;;3.67;;
10343;SDS011;5217;43.960;10.954;2022-07-06T06:13:11;5.32;;;3.42;;
10343;SDS011;5217;43.960;10.954;2022-07-06T06:15:40;5.78;;;3.63;;
10343;SDS011;5217;43.960;10.954;2022-07-06T06:18:08;7.22;;;3.80;;
10343;SDS011;5217;43.960;10.954;2022-07-06T06:20:37;4.63;;;3.45;;
10343;SDS011;5217;43.960;10.954;2022-07-06T06:23:05;6.55;;;3.67;;
10343;SDS011;5217;43.960;10.954;2022-07-06T06:25:34;4.75;;;3.67;;
10343;SDS011;5217;43.960;10.954;2022-07-06T06:28:04;6.55;;;3.97;;
10343;SDS011;5217;43.960;10.954;2022-07-06T06:30:35;5.55;;;3.92;;
10343;SDS011;5217;43.960;10.954;2022-07-06T06:33:07;6.90;;;3.60;;
10343;SDS011;5217;43.960;10.954;2022-07-06T06:35:37;9.88;;;4.05;;
10343;SDS011;5217;43.960;10.954;2022-07-06T06:38:09;9.75;;;4.35;;
10343;SDS011;5217;43.960;10.954;2022-07-06T06:40:38;4.88;;;3.60;;
10343;SDS011;5217;43.960;10.954;2022-07-06T06:43:06;7.90;;;3.58;;
10343;SDS011;5217;43.960;10.954;2022-07-06T06:45:36;6.65;;;3.60;;
10343;SDS011;5217;43.960;10.954;2022-07-06T06:48:05;5.13;;;3.72;;
10343;SDS011;5217;43.960;10.954;2022-07-06T06:50:42;9.50;;;3.83;;
10343;SDS011;5217;43.960;10.954;2022-07-06T06:53:10;6.55;;;3.20;;
10343;SDS011;5217;43.960;10.954;2022-07-06T06:55:39;4.93;;;3.65;;
10343;SDS011;5217;43.960;10.954;2022-07-06T06:58:07;3.97;;;3.08;;
10343;SDS011;5217;43.960;10.954;2022-07-06T07:00:37;4.97;;;3.30;;
10343;SDS011;5217;43.960;10.954;2022-07-06T07:03:05;8.50;;;3.40;;
10343;SDS011;5217;43.960;10.954;2022-07-06T07:05:34;5.28;;;2.92;;
10343;SDS011;5217;43.960;10.954;2022-07-06T07:08:02;8.32;;;3.20;;
10343;SDS011;5217;43.960;10.954;2022-07-06T07:10:31;5.38;;;3.20;;
10343;SDS011;5217;43.960;10.954;2022-07-06T07:13:00;5.40;;;2.92;;
10343;SDS011;5217;43.960;10.954;2022-07-06T07:15:29;5.82;;;3.40;;
10343;SDS011;5217;43.960;10.954;2022-07-06T07:17:59;6.70;;;3.17;;
10343;SDS011;5217;43.960;10.954;2022-07-06T07:20:27;5.72;;;3.10;;
10343;SDS011;5217;43.960;10.954;2022-07-06T07:22:57;5.63;;;2.75;;
10343;SDS011;5217;43.960;10.954;2022-07-06T07:25:26;4.82;;;2.80;;
10343;SDS011;5217;43.960;10.954;2022-07-06T07:27:55;5.38;;;2.88;;
10343;SDS011;5217;43.960;10.954;2022-07-06T07:30:23;5.38;;;2.80;;
10343;SDS011;5217;43.960;10.954;2022-07-06T07:32:51;7.25;;;3.05;;
10343;SDS011;5217;43.960;10.954;2022-07-06T07:35:23;7.03;;;3.08;;
10343;SDS011;5217;43.960;10.954;2022-07-06T07:37:52;8.10;;;3.15;;
10343;SDS011;5217;43.960;10.954;2022-07-06T07:40:20;5.03;;;2.75;;
10343;SDS011;5217;43.960;10.954;2022-07-06T07:42:49;6.70;;;3.08;;
10343;SDS011;5217;43.960;10.954;2022-07-06T07:45:17;6.40;;;2.90;;
10343;SDS011;5217;43.960;10.954;2022-07-06T07:47:46;5.78;;;2.70;;
10343;SDS011;5217;43.960;10.954;2022-07-06T07:50:14;6.32;;;2.72;;
10343;SDS011;5217;43.960;10.954;2022-07-06T07:52:45;5.10;;;2.90;;
10343;SDS011;5217;43.960;10.954;2022-07-06T07:55:14;5.90;;;2.90;;
10343;SDS011;5217;43.960;10.954;2022-07-06T07:58:02;7.20;;;3.13;;
10343;SDS011;5217;43.960;10.954;2022-07-06T08:00:31;5.72;;;2.83;;
10343;SDS011;5217;43.960;10.954;2022-07-06T08:02:59;4.20;;;3.08;;
10343;SDS011;5217;43.960;10.954;2022-07-06T08:05:28;5.13;;;2.70;;
10343;SDS011;5217;43.960;10.954;2022-07-06T08:07:58;4.80;;;2.60;;
10343;SDS011;5217;43.960;10.954;2022-07-06T08:10:26;4.63;;;2.70;;
10343;SDS011;5217;43.960;10.954;2022-07-06T08:12:55;4.05;;;2.50;;
10343;SDS011;5217;43.960;10.954;2022-07-06T08:15:23;3.05;;;2.45;;
10343;SDS011;5217;43.960;10.954;2022-07-06T08:17:52;2.92;;;2.45;;
10343;SDS011;5217;43.960;10.954;2022-07-06T08:20:21;3.28;;;2.50;;
10343;SDS011;5217;43.960;10.954;2022-07-06T08:22:49;2.88;;;2.20;;
10343;SDS011;5217;43.960;10.954;2022-07-06T08:25:19;3.55;;;2.67;;
10343;SDS011;5217;43.960;10.954;2022-07-06T08:27:47;4.07;;;2.25;;
10343;SDS011;5217;43.960;10.954;2022-07-06T08:30:16;4.93;;;2.80;;
10343;SDS011;5217;43.960;10.954;2022-07-06T08:32:44;5.55;;;2.83;;
10343;SDS011;5217;43.960;10.954;2022-07-06T08:35:32;5.15;;;2.95;;
10343;SDS011;5217;43.960;10.954;2022-07-06T08:38:00;6.38;;;2.78;;
10343;SDS011;5217;43.960;10.954;2022-07-06T08:40:31;5.68;;;2.50;;
10343;SDS011;5217;43.960;10.954;2022-07-06T08:43:02;3.88;;;2.30;;
10343;SDS011;5217;43.960;10.954;2022-07-06T08:45:31;2.97;;;2.35;;
10343;SDS011;5217;43.960;10.954;2022-07-06T08:48:03;2.50;;;2.20;;
10343;SDS011;5217;43.960;10.954;2022-07-06T08:50:33;3.63;;;2.42;;
10343;SDS011;5217;43.960;10.954;2022-07-06T08:53:02;5.57;;;2.33;;
10343;SDS011;5217;43.960;10.954;2022-07-06T08:55:32;3.50;;;2.20;;
10343;SDS011;5217;43.960;10.954;2022-07-06T08:58:02;4.40;;;2.28;;
10343;SDS011;5217;43.960;10.954;2022-07-06T09:00:33;2.38;;;2.17;;
10343;SDS011;5217;43.960;10.954;2022-07-06T09:03:02;3.10;;;2.05;;
10343;SDS011;5217;43.960;10.954;2022-07-06T09:05:32;2.83;;;2.28;;
10343;SDS011;5217;43.960;10.954;2022-07-06T09:08:03;5.40;;;2.55;;
10343;SDS011;5217;43.960;10.954;2022-07-06T09:10:33;4.85;;;2.50;;
10343;SDS011;5217;43.960;10.954;2022-07-06T09:13:02;3.30;;;2.20;;
10343;SDS011;5217;43.960;10.954;2022-07-06T09:15:32;2.65;;;2.20;;
10343;SDS011;5217;43.960;10.954;2022-07-06T09:18:02;2.58;;;2.08;;
10343;SDS011;5217;43.960;10.954;2022-07-06T09:20:31;3.80;;;2.28;;
10343;SDS011;5217;43.960;10.954;2022-07-06T09:23:00;3.20;;;2.22;;
10343;SDS011;5217;43.960;10.954;2022-07-06T09:25:30;4.13;;;2.50;;
10343;SDS011;5217;43.960;10.954;2022-07-06T09:28:01;2.08;;;1.88;;
10343;SDS011;5217;43.960;10.954;2022-07-06T09:30:31;4.13;;;2.25;;
10343;SDS011;5217;43.960;10.954;2022-07-06T09:33:00;2.25;;;1.88;;
10343;SDS011;5217;43.960;10.954;2022-07-06T09:35:30;3.72;;;2.40;;
10343;SDS011;5217;43.960;10.954;2022-07-06T09:38:03;2.22;;;1.90;;
10343;SDS011;5217;43.960;10.954;2022-07-06T09:40:33;4.50;;;2.30;;
10343;SDS011;5217;43.960;10.954;2022-07-06T09:43:11;2.97;;;2.20;;
10343;SDS011;5217;43.960;10.954;2022-07-06T09:45:41;3.90;;;2.00;;
10343;SDS011;5217;43.960;10.954;2022-07-06T09:48:13;2.70;;;2.00;;
10343;SDS011;5217;43.960;10.954;2022-07-06T09:50:46;3.25;;;2.20;;
10343;SDS011;5217;43.960;10.954;2022-07-06T09:53:17;5.03;;;2.40;;
10343;SDS011;5217;43.960;10.954;2022-07-06T09:55:47;3.10;;;2.08;;
10343;SDS011;5217;43.960;10.954;2022-07-06T09:58:18;5.07;;;2.40;;
10343;SDS011;5217;43.960;10.954;2022-07-06T10:01:07;4.18;;;2.30;;
10343;SDS011;5217;43.960;10.954;2022-07-06T10:03:37;5.00;;;2.25;;
10343;SDS011;5217;43.960;10.954;2022-07-06T10:06:06;3.97;;;2.15;;
10343;SDS011;5217;43.960;10.954;2022-07-06T10:08:35;4.35;;;2.50;;
10343;SDS011;5217;43.960;10.954;2022-07-06T10:11:05;3.83;;;2.13;;
10343;SDS011;5217;43.960;10.954;2022-07-06T10:13:38;5.10;;;1.98;;
10343;SDS011;5217;43.960;10.954;2022-07-06T10:16:07;2.53;;;2.30;;
10343;SDS011;5217;43.960;10.954;2022-07-06T10:18:36;4.30;;;2.00;;
10343;SDS011;5217;43.960;10.954;2022-07-06T10:21:05;4.35;;;2.20;;
10343;SDS011;5217;43.960;10.954;2022-07-06T10:23:33;5.13;;;2.33;;
10343;SDS011;5217;43.960;10.954;2022-07-06T10:26:03;2.35;;;1.98;;
10343;SDS011;5217;43.960;10.954;2022-07-06T10:28:40;4.30;;;2.30;;
10343;SDS011;5217;43.960;10.954;2022-07-06T10:31:09;3.58;;;2.28;;
10343;SDS011;5217;43.960;10.954;2022-07-06T10:33:38;3.95;;;2.20;;
10343;SDS011;5217;43.960;10.954;2022-07-06T10:36:08;4.05;;;2.20;;
10343;SDS011;5217;43.960;10.954;2022-07-06T10:38:38;4.00;;;2.13;;
10343;SDS011;5217;43.960;10.954;2022-07-06T10:41:07;4.00;;;2.20;;
10343;SDS011;5217;43.960;10.954;2022-07-06T10:43:36;4.10;;;2.15;;
10343;SDS011;5217;43.960;10.954;2022-07-06T10:46:08;3.65;;;2.20;;
10343;SDS011;5217;43.960;10.954;2022-07-06T10:48:38;2.55;;;2.28;;
10343;SDS011;5217;43.960;10.954;2022-07-06T10:51:07;3.30;;;2.30;;
10343;SDS011;5217;43.960;10.954;2022-07-06T10:53:36;3.90;;;2.30;;
10343;SDS011;5217;43.960;10.954;2022-07-06T10:56:06;3.28;;;2.10;;
10343;SDS011;5217;43.960;10.954;2022-07-06T11:01:31;2.95;;;2.05;;
10343;SDS011;5217;43.960;10.954;2022-07-06T11:04:06;2.67;;;2.22;;
10343;SDS011;5217;43.960;10.954;2022-07-06T11:06:36;2.35;;;2.15;;
10343;SDS011;5217;43.960;10.954;2022-07-06T11:09:06;3.15;;;1.80;;
10343;SDS011;5217;43.960;10.954;2022-07-06T11:11:40;3.58;;;2.22;;
10343;SDS011;5217;43.960;10.954;2022-07-06T11:14:11;2.78;;;2.10;;
10343;SDS011;5217;43.960;10.954;2022-07-06T11:19:30;2.40;;;1.90;;
10343;SDS011;5217;43.960;10.954;2022-07-06T11:22:05;2.35;;;2.10;;
10343;SDS011;5217;43.960;10.954;2022-07-06T11:24:35;4.13;;;1.98;;
10343;SDS011;5217;43.960;10.954;2022-07-06T11:27:05;2.30;;;2.10;;
10343;SDS011;5217;43.960;10.954;2022-07-06T11:29:34;2.63;;;1.90;;
10343;SDS011;5217;43.960;10.954;2022-07-06T11:32:07;3.58;;;2.05;;
10343;SDS011;5217;43.960;10.954;2022-07-06T11:34:38;2.85;;;1.95;;
10343;SDS011;5217;43.960;10.954;2022-07-06T11:37:08;2.63;;;1.90;;
10343;SDS011;5217;43.960;10.954;2022-07-06T11:39:39;3.95;;;2.08;;
10343;SDS011;5217;43.960;10.954;2022-07-06T11:42:08;2.15;;;1.80;;
10343;SDS011;5217;43.960;10.954;2022-07-06T11:44:37;2.45;;;2.10;;
10343;SDS011;5217;43.960;10.954;2022-07-06T11:47:09;3.45;;;2.17;;
10343;SDS011;5217;43.960;10.954;2022-07-06T11:49:38;3.22;;;2.10;;
10343;SDS011;5217;43.960;10.954;2022-07-06T11:52:09;2.83;;;2.20;;
10343;SDS011;5217;43.960;10.954;2022-07-06T11:54:38;3.78;;;2.17;;
10343;SDS011;5217;43.960;10.954;2022-07-06T11:57:10;3.92;;;2.00;;
10343;SDS011;5217;43.960;10.954;2022-07-06T11:59:39;2.53;;;1.70;;
10343;SDS011;5217;43.960;10.954;2022-07-06T12:02:14;2.67;;;1.90;;
10343;SDS011;5217;43.960;10.954;2022-07-06T12:04:45;4.50;;;2.03;;
10343;SDS011;5217;43.960;10.954;2022-07-06T12:07:14;3.63;;;1.80;;
10343;SDS011;5217;43.960;10.954;2022-07-06T12:09:44;5.07;;;1.92;;
10343;SDS011;5217;43.960;10.954;2022-07-06T12:12:14;4.03;;;1.90;;
10343;SDS011;5217;43.960;10.954;2022-07-06T12:14:44;2.90;;;2.00;;
10343;SDS011;5217;43.960;10.954;2022-07-06T12:17:14;4.32;;;2.10;;
10343;SDS011;5217;43.960;10.954;2022-07-06T12:19:43;5.78;;;2.00;;
10343;SDS011;5217;43.960;10.954;2022-07-06T12:22:12;5.50;;;2.10;;
10343;SDS011;5217;43.960;10.954;2022-07-06T12:24:42;4.07;;;2.00;;
10343;SDS011;5217;43.960;10.954;2022-07-06T12:27:13;2.63;;;1.98;;
10343;SDS011;5217;43.960;10.954;2022-07-06T12:29:43;4.00;;;2.25;;
10343;SDS011;5217;43.960;10.954;2022-07-06T12:32:16;3.15;;;2.10;;
10343;SDS011;5217;43.960;10.954;2022-07-06T12:34:46;4.53;;;2.15;;
10343;SDS011;5217;43.960;10.954;2022-07-06T12:37:14;4.35;;;1.90;;
10343;SDS011;5217;43.960;10.954;2022-07-06T12:39:44;2.83;;;1.98;;
10343;SDS011;5217;43.960;10.954;2022-07-06T12:42:14;3.53;;;2.28;;
10343;SDS011;5217;43.960;10.954;2022-07-06T12:44:46;3.33;;;2.00;;
10343;SDS011;5217;43.960;10.954;2022-07-06T12:47:18;3.00;;;2.10;;
10343;SDS011;5217;43.960;10.954;2022-07-06T12:49:48;3.80;;;2.40;;
10343;SDS011;5217;43.960;10.954;2022-07-06T12:52:31;2.67;;;2.10;;
10343;SDS011;5217;43.960;10.954;2022-07-06T12:55:00;6.03;;;2.40;;
10343;SDS011;5217;43.960;10.954;2022-07-06T12:57:42;6.38;;;2.40;;
10343;SDS011;5217;43.960;10.954;2022-07-06T13:00:11;3.28;;;2.25;;
10343;SDS011;5217;43.960;10.954;2022-07-06T13:02:43;5.38;;;2.13;;
10343;SDS011;5217;43.960;10.954;2022-07-06T13:05:32;3.83;;;2.30;;
10343;SDS011;5217;43.960;10.954;2022-07-06T13:08:02;4.03;;;2.20;;
10343;SDS011;5217;43.960;10.954;2022-07-06T13:10:30;4.03;;;2.38;;
10343;SDS011;5217;43.960;10.954;2022-07-06T13:13:00;3.50;;;2.20;;
10343;SDS011;5217;43.960;10.954;2022-07-06T13:15:28;3.35;;;2.17;;
10343;SDS011;5217;43.960;10.954;2022-07-06T13:17:58;3.63;;;2.08;;
10343;SDS011;5217;43.960;10.954;2022-07-06T13:20:27;4.13;;;2.22;;
10343;SDS011;5217;43.960;10.954;2022-07-06T13:22:55;5.30;;;2.10;;
10343;SDS011;5217;43.960;10.954;2022-07-06T13:25:24;3.67;;;2.20;;
10343;SDS011;5217;43.960;10.954;2022-07-06T13:27:53;3.47;;;2.20;;
10343;SDS011;5217;43.960;10.954;2022-07-06T13:30:21;4.20;;;2.20;;
10343;SDS011;5217;43.960;10.954;2022-07-06T13:32:50;3.50;;;2.15;;
10343;SDS011;5217;43.960;10.954;2022-07-06T13:35:20;4.32;;;2.22;;
10343;SDS011;5217;43.960;10.954;2022-07-06T13:37:48;2.55;;;2.00;;
10343;SDS011;5217;43.960;10.954;2022-07-06T13:40:17;3.45;;;2.10;;
10343;SDS011;5217;43.960;10.954;2022-07-06T13:42:45;2.92;;;2.00;;
10343;SDS011;5217;43.960;10.954;2022-07-06T13:45:14;3.63;;;2.20;;
10343;SDS011;5217;43.960;10.954;2022-07-06T13:47:42;2.90;;;2.28;;
10343;SDS011;5217;43.960;10.954;2022-07-06T13:50:10;7.85;;;2.22;;
10343;SDS011;5217;43.960;10.954;2022-07-06T13:52:40;3.35;;;2.28;;
10343;SDS011;5217;43.960;10.954;2022-07-06T13:55:09;6.07;;;1.90;;
10343;SDS011;5217;43.960;10.954;2022-07-06T13:57:37;2.47;;;2.00;;
10343;SDS011;5217;43.960;10.954;2022-07-06T14:00:09;2.00;;;1.70;;
10343;SDS011;5217;43.960;10.954;2022-07-06T14:02:38;4.20;;;2.03;;
10343;SDS011;5217;43.960;10.954;2022-07-06T14:05:07;2.20;;;2.00;;
10343;SDS011;5217;43.960;10.954;2022-07-06T14:07:35;4.07;;;2.03;;
10343;SDS011;5217;43.960;10.954;2022-07-06T14:10:06;2.42;;;1.70;;
10343;SDS011;5217;43.960;10.954;2022-07-06T14:12:35;1.98;;;1.67;;
10343;SDS011;5217;43.960;10.954;2022-07-06T14:15:04;3.30;;;1.80;;
10343;SDS011;5217;43.960;10.954;2022-07-06T14:17:33;1.85;;;1.75;;
10343;SDS011;5217;43.960;10.954;2022-07-06T14:20:02;2.83;;;1.80;;
10343;SDS011;5217;43.960;10.954;2022-07-06T14:22:31;2.05;;;1.60;;
10343;SDS011;5217;43.960;10.954;2022-07-06T14:25:00;1.88;;;1.55;;
10343;SDS011;5217;43.960;10.954;2022-07-06T14:27:30;2.85;;;1.63;;
10343;SDS011;5217;43.960;10.954;2022-07-06T14:29:58;2.17;;;1.80;;
10343;SDS011;5217;43.960;10.954;2022-07-06T14:32:27;2.50;;;1.88;;
10343;SDS011;5217;43.960;10.954;2022-07-06T14:34:55;3.28;;;1.90;;
10343;SDS011;5217;43.960;10.954;2022-07-06T14:37:24;1.80;;;1.70;;
10343;SDS011;5217;43.960;10.954;2022-07-06T14:39:52;1.65;;;1.50;;
10343;SDS011;5217;43.960;10.954;2022-07-06T14:42:21;4.07;;;1.92;;
10343;SDS011;5217;43.960;10.954;2022-07-06T14:44:51;4.18;;;1.70;;
10343;SDS011;5217;43.960;10.954;2022-07-06T14:47:19;1.67;;;1.50;;
10343;SDS011;5217;43.960;10.954;2022-07-06T14:49:47;2.80;;;1.83;;
10343;SDS011;5217;43.960;10.954;2022-07-06T14:52:17;2.78;;;1.70;;
10343;SDS011;5217;43.960;10.954;2022-07-06T14:54:46;1.95;;;1.70;;
10343;SDS011;5217;43.960;10.954;2022-07-06T14:57:14;2.42;;;1.83;;
10343;SDS011;5217;43.960;10.954;2022-07-06T14:59:42;3.03;;;1.70;;
10343;SDS011;5217;43.960;10.954;2022-07-06T15:02:14;1.67;;;1.50;;
10343;SDS011;5217;43.960;10.954;2022-07-06T15:04:42;2.20;;;1.60;;
10343;SDS011;5217;43.960;10.954;2022-07-06T15:07:10;5.57;;;1.70;;
10343;SDS011;5217;43.960;10.954;2022-07-06T15:09:39;2.78;;;1.75;;